Terminal Aerodrome Forecast
Issued by NWS

Home | Current Version | Previous Version | Text Only | Print | Product List | Glossary On
Versions: 1 2 3 4 5 6 7 8 9 10 11 12 13 14 15 16 17 18 19 20 21 22
000
FTUS44 KCRP 161400 AAA
TAFALI
TAF AMD
KALI 161413Z 1614/1712 03009KT P6SM VCSH BKN010 OVC025
      TEMPO 1614/1616 5SM SHRA OVC006
     FM161600 07005KT P6SM VCSH OVC025
      TEMPO 1616/1619 VRB15G25KT 4SM TSRA OVC020CB
     FM161900 11006KT P6SM VCTS BKN035CB
      TEMPO 1619/1622 3SM +TSRA BR BKN025CB
     FM162200 13010KT P6SM VCTS BKN035CB
     FM170300 15005KT P6SM SCT030=

USA.gov is the U.S. government's official web portal to all federal, state and local government web resources and services.